sensor_id;sensor_type;location;lat;lon;timestamp;temperature;humidity
13569;DHT22;6856;51.460;7.158;2023-07-13T00:01:25;22.60;47.00
13569;DHT22;6856;51.460;7.158;2023-07-13T00:03:59;22.50;47.00
13569;DHT22;6856;51.460;7.158;2023-07-13T00:06:36;22.50;46.90
13569;DHT22;6856;51.460;7.158;2023-07-13T00:09:10;22.50;47.00
13569;DHT22;6856;51.460;7.158;2023-07-13T00:11:45;22.50;47.50
13569;DHT22;6856;51.460;7.158;2023-07-13T00:14:23;22.50;47.00
13569;DHT22;6856;51.460;7.158;2023-07-13T00:16:59;22.40;47.10
13569;DHT22;6856;51.460;7.158;2023-07-13T00:19:34;22.40;47.00
13569;DHT22;6856;51.460;7.158;2023-07-13T00:22:09;22.40;47.10
13569;DHT22;6856;51.460;7.158;2023-07-13T00:24:43;22.40;47.60
13569;DHT22;6856;51.460;7.158;2023-07-13T00:27:17;22.30;47.10
13569;DHT22;6856;51.460;7.158;2023-07-13T00:29:51;22.30;47.20
13569;DHT22;6856;51.460;7.158;2023-07-13T00:32:25;22.30;47.10
13569;DHT22;6856;51.460;7.158;2023-07-13T00:34:58;22.20;47.10
13569;DHT22;6856;51.460;7.158;2023-07-13T00:37:34;22.20;47.20
13569;DHT22;6856;51.460;7.158;2023-07-13T00:40:10;22.20;47.30
13569;DHT22;6856;51.460;7.158;2023-07-13T00:42:45;22.20;47.20
13569;DHT22;6856;51.460;7.158;2023-07-13T00:48:51;22.10;47.20
13569;DHT22;6856;51.460;7.158;2023-07-13T00:51:31;22.10;47.10
13569;DHT22;6856;51.460;7.158;2023-07-13T00:54:13;22.00;47.20
13569;DHT22;6856;51.460;7.158;2023-07-13T00:56:53;22.00;47.20
13569;DHT22;6856;51.460;7.158;2023-07-13T00:59:31;21.90;47.20
13569;DHT22;6856;51.460;7.158;2023-07-13T01:02:07;21.90;47.30
13569;DHT22;6856;51.460;7.158;2023-07-13T01:04:41;21.80;47.20
13569;DHT22;6856;51.460;7.158;2023-07-13T01:07:16;21.80;47.20
13569;DHT22;6856;51.460;7.158;2023-07-13T01:09:53;21.80;47.20
13569;DHT22;6856;51.460;7.158;2023-07-13T01:12:27;21.70;47.10
13569;DHT22;6856;51.460;7.158;2023-07-13T01:15:04;21.70;47.10
13569;DHT22;6856;51.460;7.158;2023-07-13T01:17:39;21.70;47.30
13569;DHT22;6856;51.460;7.158;2023-07-13T01:20:13;21.60;47.30
13569;DHT22;6856;51.460;7.158;2023-07-13T01:22:48;21.50;47.30
13569;DHT22;6856;51.460;7.158;2023-07-13T01:25:23;21.50;47.50
13569;DHT22;6856;51.460;7.158;2023-07-13T01:27:56;21.40;47.60
13569;DHT22;6856;51.460;7.158;2023-07-13T01:30:30;21.40;47.70
13569;DHT22;6856;51.460;7.158;2023-07-13T01:33:04;21.40;47.80
13569;DHT22;6856;51.460;7.158;2023-07-13T01:35:39;21.40;47.80
13569;DHT22;6856;51.460;7.158;2023-07-13T01:38:18;21.30;47.80
13569;DHT22;6856;51.460;7.158;2023-07-13T01:40:53;21.30;47.80
13569;DHT22;6856;51.460;7.158;2023-07-13T01:43:27;21.30;47.90
13569;DHT22;6856;51.460;7.158;2023-07-13T01:46:00;21.30;47.90
13569;DHT22;6856;51.460;7.158;2023-07-13T01:48:52;21.30;47.90
13569;DHT22;6856;51.460;7.158;2023-07-13T01:51:26;21.20;47.90
13569;DHT22;6856;51.460;7.158;2023-07-13T01:54:02;21.20;48.00
13569;DHT22;6856;51.460;7.158;2023-07-13T01:56:35;21.20;48.10
13569;DHT22;6856;51.460;7.158;2023-07-13T01:59:10;21.20;48.10
13569;DHT22;6856;51.460;7.158;2023-07-13T02:01:43;21.20;48.10
13569;DHT22;6856;51.460;7.158;2023-07-13T02:04:17;21.10;48.10
13569;DHT22;6856;51.460;7.158;2023-07-13T02:06:51;21.10;48.10
13569;DHT22;6856;51.460;7.158;2023-07-13T02:09:28;21.10;48.10
13569;DHT22;6856;51.460;7.158;2023-07-13T02:12:04;21.00;48.20
13569;DHT22;6856;51.460;7.158;2023-07-13T02:14:39;21.00;48.30
13569;DHT22;6856;51.460;7.158;2023-07-13T02:17:14;21.00;48.20
13569;DHT22;6856;51.460;7.158;2023-07-13T02:19:48;20.90;48.20
13569;DHT22;6856;51.460;7.158;2023-07-13T02:22:22;20.90;48.30
13569;DHT22;6856;51.460;7.158;2023-07-13T02:24:58;20.90;48.40
13569;DHT22;6856;51.460;7.158;2023-07-13T02:27:32;20.90;48.50
13569;DHT22;6856;51.460;7.158;2023-07-13T02:30:07;20.80;48.40
13569;DHT22;6856;51.460;7.158;2023-07-13T02:32:41;20.80;48.60
13569;DHT22;6856;51.460;7.158;2023-07-13T02:35:16;20.70;48.50
13569;DHT22;6856;51.460;7.158;2023-07-13T02:37:49;20.70;48.70
13569;DHT22;6856;51.460;7.158;2023-07-13T02:40:25;20.70;48.80
13569;DHT22;6856;51.460;7.158;2023-07-13T02:42:59;20.60;48.70
13569;DHT22;6856;51.460;7.158;2023-07-13T02:45:35;20.60;48.90
13569;DHT22;6856;51.460;7.158;2023-07-13T02:48:10;20.60;49.00
13569;DHT22;6856;51.460;7.158;2023-07-13T02:50:44;20.50;49.00
13569;DHT22;6856;51.460;7.158;2023-07-13T02:53:18;20.50;49.00
13569;DHT22;6856;51.460;7.158;2023-07-13T02:55:54;20.50;49.10
13569;DHT22;6856;51.460;7.158;2023-07-13T02:58:28;20.50;49.20
13569;DHT22;6856;51.460;7.158;2023-07-13T03:01:06;20.40;49.20
13569;DHT22;6856;51.460;7.158;2023-07-13T03:03:41;20.40;49.40
13569;DHT22;6856;51.460;7.158;2023-07-13T03:06:16;20.40;49.40
13569;DHT22;6856;51.460;7.158;2023-07-13T03:08:50;20.40;49.40
13569;DHT22;6856;51.460;7.158;2023-07-13T03:11:26;20.30;49.50
13569;DHT22;6856;51.460;7.158;2023-07-13T03:14:00;20.30;49.60
13569;DHT22;6856;51.460;7.158;2023-07-13T03:16:34;20.30;49.50
13569;DHT22;6856;51.460;7.158;2023-07-13T03:19:08;20.20;49.60
13569;DHT22;6856;51.460;7.158;2023-07-13T03:21:42;20.20;49.70
13569;DHT22;6856;51.460;7.158;2023-07-13T03:24:15;20.20;49.70
13569;DHT22;6856;51.460;7.158;2023-07-13T03:26:51;20.10;49.70
13569;DHT22;6856;51.460;7.158;2023-07-13T03:29:25;20.20;50.00
13569;DHT22;6856;51.460;7.158;2023-07-13T03:31:59;20.10;49.90
13569;DHT22;6856;51.460;7.158;2023-07-13T03:34:33;20.10;49.90
13569;DHT22;6856;51.460;7.158;2023-07-13T03:37:07;20.10;50.10
13569;DHT22;6856;51.460;7.158;2023-07-13T03:39:41;20.10;50.10
13569;DHT22;6856;51.460;7.158;2023-07-13T03:42:16;20.10;50.10
13569;DHT22;6856;51.460;7.158;2023-07-13T03:44:50;20.10;50.20
13569;DHT22;6856;51.460;7.158;2023-07-13T03:47:24;20.10;50.40
13569;DHT22;6856;51.460;7.158;2023-07-13T03:49:58;20.10;50.40
13569;DHT22;6856;51.460;7.158;2023-07-13T03:52:34;20.00;50.50
13569;DHT22;6856;51.460;7.158;2023-07-13T03:55:09;20.00;50.50
13569;DHT22;6856;51.460;7.158;2023-07-13T03:57:44;20.00;50.50
13569;DHT22;6856;51.460;7.158;2023-07-13T04:00:19;19.90;50.60
13569;DHT22;6856;51.460;7.158;2023-07-13T04:02:52;20.00;50.70
13569;DHT22;6856;51.460;7.158;2023-07-13T04:05:26;19.90;50.80
13569;DHT22;6856;51.460;7.158;2023-07-13T04:08:00;19.90;50.80
13569;DHT22;6856;51.460;7.158;2023-07-13T04:10:34;19.90;50.90
13569;DHT22;6856;51.460;7.158;2023-07-13T04:13:09;19.90;51.10
13569;DHT22;6856;51.460;7.158;2023-07-13T04:15:43;19.90;51.20
13569;DHT22;6856;51.460;7.158;2023-07-13T04:18:17;19.90;51.10
13569;DHT22;6856;51.460;7.158;2023-07-13T04:20:51;19.90;51.30
13569;DHT22;6856;51.460;7.158;2023-07-13T04:23:25;19.90;51.40
13569;DHT22;6856;51.460;7.158;2023-07-13T04:25:59;19.90;51.40
13569;DHT22;6856;51.460;7.158;2023-07-13T04:28:34;19.80;51.50
13569;DHT22;6856;51.460;7.158;2023-07-13T04:31:08;19.80;51.40
13569;DHT22;6856;51.460;7.158;2023-07-13T04:33:42;19.80;51.60
13569;DHT22;6856;51.460;7.158;2023-07-13T04:36:19;19.80;51.70
13569;DHT22;6856;51.460;7.158;2023-07-13T04:38:53;19.80;51.70
13569;DHT22;6856;51.460;7.158;2023-07-13T04:41:27;19.80;51.90
13569;DHT22;6856;51.460;7.158;2023-07-13T04:44:03;19.80;51.90
13569;DHT22;6856;51.460;7.158;2023-07-13T04:46:37;19.70;51.80
13569;DHT22;6856;51.460;7.158;2023-07-13T04:49:11;19.70;52.00
13569;DHT22;6856;51.460;7.158;2023-07-13T04:51:45;19.70;52.10
13569;DHT22;6856;51.460;7.158;2023-07-13T04:54:19;19.70;52.30
13569;DHT22;6856;51.460;7.158;2023-07-13T04:56:53;19.70;52.40
13569;DHT22;6856;51.460;7.158;2023-07-13T04:59:29;19.70;52.30
13569;DHT22;6856;51.460;7.158;2023-07-13T05:02:04;19.70;52.50
13569;DHT22;6856;51.460;7.158;2023-07-13T05:04:38;19.70;52.60
13569;DHT22;6856;51.460;7.158;2023-07-13T05:07:12;19.70;52.60
13569;DHT22;6856;51.460;7.158;2023-07-13T05:09:46;19.70;52.60
13569;DHT22;6856;51.460;7.158;2023-07-13T05:12:19;19.70;52.70
13569;DHT22;6856;51.460;7.158;2023-07-13T05:14:54;19.70;52.80
13569;DHT22;6856;51.460;7.158;2023-07-13T05:17:29;19.70;53.00
13569;DHT22;6856;51.460;7.158;2023-07-13T05:20:03;19.70;53.10
13569;DHT22;6856;51.460;7.158;2023-07-13T05:22:38;19.70;53.20
13569;DHT22;6856;51.460;7.158;2023-07-13T05:25:12;19.70;53.30
13569;DHT22;6856;51.460;7.158;2023-07-13T05:27:46;19.70;53.20
13569;DHT22;6856;51.460;7.158;2023-07-13T05:30:22;19.70;53.40
13569;DHT22;6856;51.460;7.158;2023-07-13T05:32:55;19.70;53.60
13569;DHT22;6856;51.460;7.158;2023-07-13T05:35:29;19.70;53.60
13569;DHT22;6856;51.460;7.158;2023-07-13T05:38:03;19.80;53.60
13569;DHT22;6856;51.460;7.158;2023-07-13T05:40:37;19.80;53.70
13569;DHT22;6856;51.460;7.158;2023-07-13T05:43:11;19.80;53.70
13569;DHT22;6856;51.460;7.158;2023-07-13T05:45:48;19.80;53.80
13569;DHT22;6856;51.460;7.158;2023-07-13T05:48:24;19.80;53.90
13569;DHT22;6856;51.460;7.158;2023-07-13T05:50:58;19.80;53.80
13569;DHT22;6856;51.460;7.158;2023-07-13T05:53:32;19.80;54.00
13569;DHT22;6856;51.460;7.158;2023-07-13T05:56:08;19.80;54.20
13569;DHT22;6856;51.460;7.158;2023-07-13T05:58:41;19.80;54.20
13569;DHT22;6856;51.460;7.158;2023-07-13T06:01:18;19.80;54.10
13569;DHT22;6856;51.460;7.158;2023-07-13T06:03:52;19.90;54.30
13569;DHT22;6856;51.460;7.158;2023-07-13T06:06:26;19.90;54.30
13569;DHT22;6856;51.460;7.158;2023-07-13T06:09:01;19.90;54.30
13569;DHT22;6856;51.460;7.158;2023-07-13T06:11:35;19.90;54.50
13569;DHT22;6856;51.460;7.158;2023-07-13T06:14:08;19.90;54.50
13569;DHT22;6856;51.460;7.158;2023-07-13T06:16:44;19.90;54.60
13569;DHT22;6856;51.460;7.158;2023-07-13T06:19:18;20.00;54.50
13569;DHT22;6856;51.460;7.158;2023-07-13T06:21:52;20.00;54.60
13569;DHT22;6856;51.460;7.158;2023-07-13T06:24:28;20.00;54.50
13569;DHT22;6856;51.460;7.158;2023-07-13T06:27:02;20.00;54.70
13569;DHT22;6856;51.460;7.158;2023-07-13T06:29:36;20.10;55.00
13569;DHT22;6856;51.460;7.158;2023-07-13T06:32:13;20.10;54.90
13569;DHT22;6856;51.460;7.158;2023-07-13T06:34:47;20.10;55.10
13569;DHT22;6856;51.460;7.158;2023-07-13T06:37:20;20.20;55.20
13569;DHT22;6856;51.460;7.158;2023-07-13T06:39:55;20.20;55.00
13569;DHT22;6856;51.460;7.158;2023-07-13T06:42:29;20.30;55.30
13569;DHT22;6856;51.460;7.158;2023-07-13T06:45:03;20.30;55.20
13569;DHT22;6856;51.460;7.158;2023-07-13T06:47:39;20.40;55.80
13569;DHT22;6856;51.460;7.158;2023-07-13T06:50:13;20.40;55.20
13569;DHT22;6856;51.460;7.158;2023-07-13T06:52:47;20.50;55.10
13569;DHT22;6856;51.460;7.158;2023-07-13T06:55:21;20.60;54.90
13569;DHT22;6856;51.460;7.158;2023-07-13T06:57:55;20.70;55.00
13569;DHT22;6856;51.460;7.158;2023-07-13T07:00:29;20.70;54.80
13569;DHT22;6856;51.460;7.158;2023-07-13T07:03:04;20.70;54.90
13569;DHT22;6856;51.460;7.158;2023-07-13T07:05:38;20.80;54.80
13569;DHT22;6856;51.460;7.158;2023-07-13T07:08:12;20.90;54.80
13569;DHT22;6856;51.460;7.158;2023-07-13T07:10:48;21.00;55.00
13569;DHT22;6856;51.460;7.158;2023-07-13T07:13:26;21.00;54.90
13569;DHT22;6856;51.460;7.158;2023-07-13T07:16:01;21.10;54.70
13569;DHT22;6856;51.460;7.158;2023-07-13T07:18:37;21.20;54.70
13569;DHT22;6856;51.460;7.158;2023-07-13T07:21:11;21.30;54.50
13569;DHT22;6856;51.460;7.158;2023-07-13T07:23:46;21.40;54.50
13569;DHT22;6856;51.460;7.158;2023-07-13T07:26:20;21.40;54.30
13569;DHT22;6856;51.460;7.158;2023-07-13T07:28:58;21.50;54.20
13569;DHT22;6856;51.460;7.158;2023-07-13T07:31:35;21.50;54.10
13569;DHT22;6856;51.460;7.158;2023-07-13T07:34:14;21.60;54.20
13569;DHT22;6856;51.460;7.158;2023-07-13T07:36:47;21.60;54.60
13569;DHT22;6856;51.460;7.158;2023-07-13T07:39:24;21.70;53.80
13569;DHT22;6856;51.460;7.158;2023-07-13T07:41:58;21.70;53.60
13569;DHT22;6856;51.460;7.158;2023-07-13T07:44:32;21.80;53.70
13569;DHT22;6856;51.460;7.158;2023-07-13T07:47:07;21.80;53.90
13569;DHT22;6856;51.460;7.158;2023-07-13T07:49:43;21.80;54.00
13569;DHT22;6856;51.460;7.158;2023-07-13T07:52:16;21.80;53.90
13569;DHT22;6856;51.460;7.158;2023-07-13T07:54:50;21.90;54.00
13569;DHT22;6856;51.460;7.158;2023-07-13T07:57:27;22.00;54.20
13569;DHT22;6856;51.460;7.158;2023-07-13T08:00:08;22.00;53.90
13569;DHT22;6856;51.460;7.158;2023-07-13T08:02:46;22.10;54.10
13569;DHT22;6856;51.460;7.158;2023-07-13T08:05:25;22.20;54.00
13569;DHT22;6856;51.460;7.158;2023-07-13T08:08:14;22.20;53.80
13569;DHT22;6856;51.460;7.158;2023-07-13T08:10:48;22.30;53.70
13569;DHT22;6856;51.460;7.158;2023-07-13T08:13:22;22.50;53.70
13569;DHT22;6856;51.460;7.158;2023-07-13T08:15:55;22.50;53.80
13569;DHT22;6856;51.460;7.158;2023-07-13T08:18:29;22.50;53.80
13569;DHT22;6856;51.460;7.158;2023-07-13T08:21:05;22.70;53.70
13569;DHT22;6856;51.460;7.158;2023-07-13T08:23:41;22.80;53.70
13569;DHT22;6856;51.460;7.158;2023-07-13T08:26:15;22.90;53.50
13569;DHT22;6856;51.460;7.158;2023-07-13T08:28:48;22.90;52.90
13569;DHT22;6856;51.460;7.158;2023-07-13T08:31:22;23.00;52.60
13569;DHT22;6856;51.460;7.158;2023-07-13T08:33:56;23.10;52.70
13569;DHT22;6856;51.460;7.158;2023-07-13T08:36:32;23.10;52.50
13569;DHT22;6856;51.460;7.158;2023-07-13T08:39:05;23.20;52.30
13569;DHT22;6856;51.460;7.158;2023-07-13T08:41:39;23.30;52.40
13569;DHT22;6856;51.460;7.158;2023-07-13T08:44:20;23.30;52.30
13569;DHT22;6856;51.460;7.158;2023-07-13T08:47:03;23.40;52.30
13569;DHT22;6856;51.460;7.158;2023-07-13T08:49:38;23.50;52.30
13569;DHT22;6856;51.460;7.158;2023-07-13T08:52:20;23.60;52.20
13569;DHT22;6856;51.460;7.158;2023-07-13T08:55:09;23.70;51.90
13569;DHT22;6856;51.460;7.158;2023-07-13T08:57:53;23.80;51.60
13569;DHT22;6856;51.460;7.158;2023-07-13T09:00:40;23.80;51.70
13569;DHT22;6856;51.460;7.158;2023-07-13T09:03:24;23.90;52.00
13569;DHT22;6856;51.460;7.158;2023-07-13T09:06:06;24.00;51.40
13569;DHT22;6856;51.460;7.158;2023-07-13T09:08:55;24.00;51.30
13569;DHT22;6856;51.460;7.158;2023-07-13T09:11:43;24.00;51.00
13569;DHT22;6856;51.460;7.158;2023-07-13T09:14:34;24.00;50.80
13569;DHT22;6856;51.460;7.158;2023-07-13T09:17:18;23.90;51.00
13569;DHT22;6856;51.460;7.158;2023-07-13T09:19:59;24.00;50.90
13569;DHT22;6856;51.460;7.158;2023-07-13T09:22:38;24.00;51.30
13569;DHT22;6856;51.460;7.158;2023-07-13T09:25:23;24.00;51.80
13569;DHT22;6856;51.460;7.158;2023-07-13T09:28:15;24.10;51.60
13569;DHT22;6856;51.460;7.158;2023-07-13T09:31:00;24.20;51.40
13569;DHT22;6856;51.460;7.158;2023-07-13T09:33:38;24.20;51.00
13569;DHT22;6856;51.460;7.158;2023-07-13T09:36:18;24.30;51.00
13569;DHT22;6856;51.460;7.158;2023-07-13T09:38:59;24.40;50.90
13569;DHT22;6856;51.460;7.158;2023-07-13T09:41:43;24.50;51.30
13569;DHT22;6856;51.460;7.158;2023-07-13T09:44:28;24.50;51.10
13569;DHT22;6856;51.460;7.158;2023-07-13T09:47:16;24.60;50.80
13569;DHT22;6856;51.460;7.158;2023-07-13T09:49:55;24.70;51.00
13569;DHT22;6856;51.460;7.158;2023-07-13T09:52:41;24.80;51.10
13569;DHT22;6856;51.460;7.158;2023-07-13T09:55:26;24.90;50.50
13569;DHT22;6856;51.460;7.158;2023-07-13T09:58:10;25.00;50.70
13569;DHT22;6856;51.460;7.158;2023-07-13T10:00:55;25.00;50.20
13569;DHT22;6856;51.460;7.158;2023-07-13T10:03:31;25.10;50.10
13569;DHT22;6856;51.460;7.158;2023-07-13T10:06:12;25.10;50.20
13569;DHT22;6856;51.460;7.158;2023-07-13T10:08:49;25.10;50.00
13569;DHT22;6856;51.460;7.158;2023-07-13T10:11:27;25.10;49.70
13569;DHT22;6856;51.460;7.158;2023-07-13T10:14:12;25.10;49.50
13569;DHT22;6856;51.460;7.158;2023-07-13T10:16:50;25.10;49.40
13569;DHT22;6856;51.460;7.158;2023-07-13T10:19:32;25.10;49.80
13569;DHT22;6856;51.460;7.158;2023-07-13T10:22:14;25.10;49.80
13569;DHT22;6856;51.460;7.158;2023-07-13T10:24:55;25.10;50.00
13569;DHT22;6856;51.460;7.158;2023-07-13T10:27:34;25.10;50.00
13569;DHT22;6856;51.460;7.158;2023-07-13T10:30:13;25.20;49.80
13569;DHT22;6856;51.460;7.158;2023-07-13T10:32:52;25.20;49.30
13569;DHT22;6856;51.460;7.158;2023-07-13T10:35:27;25.20;49.40
13569;DHT22;6856;51.460;7.158;2023-07-13T10:38:05;25.20;49.50
13569;DHT22;6856;51.460;7.158;2023-07-13T10:40:51;25.10;49.20
13569;DHT22;6856;51.460;7.158;2023-07-13T10:43:33;25.10;49.40
13569;DHT22;6856;51.460;7.158;2023-07-13T10:46:14;25.10;49.50
13569;DHT22;6856;51.460;7.158;2023-07-13T10:48:58;25.10;49.50
13569;DHT22;6856;51.460;7.158;2023-07-13T10:51:37;25.10;49.50
13569;DHT22;6856;51.460;7.158;2023-07-13T10:54:17;25.10;49.20
13569;DHT22;6856;51.460;7.158;2023-07-13T10:57:14;25.00;49.30
13569;DHT22;6856;51.460;7.158;2023-07-13T11:00:14;25.00;49.40
13569;DHT22;6856;51.460;7.158;2023-07-13T11:02:58;25.10;49.50
13569;DHT22;6856;51.460;7.158;2023-07-13T11:05:33;25.10;49.20
13569;DHT22;6856;51.460;7.158;2023-07-13T11:08:18;25.10;49.00
13569;DHT22;6856;51.460;7.158;2023-07-13T11:10:55;25.10;50.20
13569;DHT22;6856;51.460;7.158;2023-07-13T11:13:38;25.20;49.40
13569;DHT22;6856;51.460;7.158;2023-07-13T11:16:36;25.20;48.70
13569;DHT22;6856;51.460;7.158;2023-07-13T11:19:28;25.30;49.00
13569;DHT22;6856;51.460;7.158;2023-07-13T11:22:24;25.30;49.70
13569;DHT22;6856;51.460;7.158;2023-07-13T11:25:02;25.40;49.10
13569;DHT22;6856;51.460;7.158;2023-07-13T11:28:23;25.40;49.10
13569;DHT22;6856;51.460;7.158;2023-07-13T11:31:12;25.50;48.80
13569;DHT22;6856;51.460;7.158;2023-07-13T11:33:52;25.60;48.80
13569;DHT22;6856;51.460;7.158;2023-07-13T11:36:37;25.70;48.40
13569;DHT22;6856;51.460;7.158;2023-07-13T11:39:19;25.70;47.80
13569;DHT22;6856;51.460;7.158;2023-07-13T11:41:58;25.70;47.80
13569;DHT22;6856;51.460;7.158;2023-07-13T11:44:40;25.60;47.50
13569;DHT22;6856;51.460;7.158;2023-07-13T11:47:35;25.50;47.70
13569;DHT22;6856;51.460;7.158;2023-07-13T11:50:18;25.50;47.80
13569;DHT22;6856;51.460;7.158;2023-07-13T11:52:57;25.50;47.80
13569;DHT22;6856;51.460;7.158;2023-07-13T11:55:38;25.50;47.70
13569;DHT22;6856;51.460;7.158;2023-07-13T11:58:14;25.50;47.70
13569;DHT22;6856;51.460;7.158;2023-07-13T12:00:53;25.60;47.60
13569;DHT22;6856;51.460;7.158;2023-07-13T12:03:29;25.70;47.80
13569;DHT22;6856;51.460;7.158;2023-07-13T12:06:04;25.80;47.50
13569;DHT22;6856;51.460;7.158;2023-07-13T12:09:01;26.00;47.80
13569;DHT22;6856;51.460;7.158;2023-07-13T12:11:36;26.10;47.30
13569;DHT22;6856;51.460;7.158;2023-07-13T12:14:14;26.20;47.50
13569;DHT22;6856;51.460;7.158;2023-07-13T12:16:49;26.30;47.20
13569;DHT22;6856;51.460;7.158;2023-07-13T12:19:26;26.40;46.80
13569;DHT22;6856;51.460;7.158;2023-07-13T12:22:01;26.40;46.60
13569;DHT22;6856;51.460;7.158;2023-07-13T12:24:37;26.50;46.50
13569;DHT22;6856;51.460;7.158;2023-07-13T12:27:20;26.50;45.90
13569;DHT22;6856;51.460;7.158;2023-07-13T12:29:59;26.60;46.00
13569;DHT22;6856;51.460;7.158;2023-07-13T12:32:34;26.60;46.10
13569;DHT22;6856;51.460;7.158;2023-07-13T12:35:15;26.60;45.70
13569;DHT22;6856;51.460;7.158;2023-07-13T12:37:54;26.60;45.20
13569;DHT22;6856;51.460;7.158;2023-07-13T12:40:34;26.60;45.40
13569;DHT22;6856;51.460;7.158;2023-07-13T12:43:12;26.60;44.90
13569;DHT22;6856;51.460;7.158;2023-07-13T12:45:57;26.60;45.00
13569;DHT22;6856;51.460;7.158;2023-07-13T12:48:39;26.60;44.90
13569;DHT22;6856;51.460;7.158;2023-07-13T12:51:26;26.60;45.30
13569;DHT22;6856;51.460;7.158;2023-07-13T12:54:10;26.70;45.10
13569;DHT22;6856;51.460;7.158;2023-07-13T12:56:52;26.70;44.50
13569;DHT22;6856;51.460;7.158;2023-07-13T12:59:30;26.70;45.00
13569;DHT22;6856;51.460;7.158;2023-07-13T13:02:23;26.70;44.70
13569;DHT22;6856;51.460;7.158;2023-07-13T13:05:06;26.70;44.50
13569;DHT22;6856;51.460;7.158;2023-07-13T13:07:47;26.80;45.20
13569;DHT22;6856;51.460;7.158;2023-07-13T13:10:21;26.80;44.30
13569;DHT22;6856;51.460;7.158;2023-07-13T13:12:56;26.70;44.10
13569;DHT22;6856;51.460;7.158;2023-07-13T13:15:31;26.70;44.00
13569;DHT22;6856;51.460;7.158;2023-07-13T13:18:16;26.70;44.20
13569;DHT22;6856;51.460;7.158;2023-07-13T13:20:52;26.60;44.20
13569;DHT22;6856;51.460;7.158;2023-07-13T13:23:25;26.50;43.90
13569;DHT22;6856;51.460;7.158;2023-07-13T13:26:00;26.50;43.80
13569;DHT22;6856;51.460;7.158;2023-07-13T13:28:37;26.40;43.70
13569;DHT22;6856;51.460;7.158;2023-07-13T13:31:11;26.30;43.90
13569;DHT22;6856;51.460;7.158;2023-07-13T13:33:46;26.20;44.00
13569;DHT22;6856;51.460;7.158;2023-07-13T13:36:22;26.10;44.90
13569;DHT22;6856;51.460;7.158;2023-07-13T13:38:56;26.00;45.60
13569;DHT22;6856;51.460;7.158;2023-07-13T13:41:30;25.90;46.30
13569;DHT22;6856;51.460;7.158;2023-07-13T13:44:09;25.70;46.90
13569;DHT22;6856;51.460;7.158;2023-07-13T13:46:45;25.60;48.20
13569;DHT22;6856;51.460;7.158;2023-07-13T13:49:22;25.50;48.50
13569;DHT22;6856;51.460;7.158;2023-07-13T13:51:58;25.30;49.10
13569;DHT22;6856;51.460;7.158;2023-07-13T13:54:32;25.20;48.70
13569;DHT22;6856;51.460;7.158;2023-07-13T13:57:06;25.10;48.90
13569;DHT22;6856;51.460;7.158;2023-07-13T13:59:45;25.10;49.20
13569;DHT22;6856;51.460;7.158;2023-07-13T14:02:23;25.00;49.40
13569;DHT22;6856;51.460;7.158;2023-07-13T14:05:02;25.00;49.80
13569;DHT22;6856;51.460;7.158;2023-07-13T14:07:38;25.00;50.00
13569;DHT22;6856;51.460;7.158;2023-07-13T14:10:13;25.00;50.40
13569;DHT22;6856;51.460;7.158;2023-07-13T14:12:52;25.10;50.70
13569;DHT22;6856;51.460;7.158;2023-07-13T14:15:29;25.10;51.00
13569;DHT22;6856;51.460;7.158;2023-07-13T14:18:04;25.10;50.70
13569;DHT22;6856;51.460;7.158;2023-07-13T14:20:37;25.20;50.70
13569;DHT22;6856;51.460;7.158;2023-07-13T14:23:13;25.20;50.80
13569;DHT22;6856;51.460;7.158;2023-07-13T14:25:48;25.30;50.80
13569;DHT22;6856;51.460;7.158;2023-07-13T14:28:24;25.30;50.50
13569;DHT22;6856;51.460;7.158;2023-07-13T14:31:00;25.30;50.40
13569;DHT22;6856;51.460;7.158;2023-07-13T14:33:34;25.30;50.40
13569;DHT22;6856;51.460;7.158;2023-07-13T14:36:21;25.20;50.40
13569;DHT22;6856;51.460;7.158;2023-07-13T14:39:05;25.20;50.70
13569;DHT22;6856;51.460;7.158;2023-07-13T14:41:49;25.10;50.70
13569;DHT22;6856;51.460;7.158;2023-07-13T14:44:26;25.10;51.10
13569;DHT22;6856;51.460;7.158;2023-07-13T14:47:05;25.10;51.30
13569;DHT22;6856;51.460;7.158;2023-07-13T14:49:42;25.10;51.50
13569;DHT22;6856;51.460;7.158;2023-07-13T14:52:21;25.10;51.50
13569;DHT22;6856;51.460;7.158;2023-07-13T14:54:58;25.00;51.70
13569;DHT22;6856;51.460;7.158;2023-07-13T14:57:32;25.10;52.00
13569;DHT22;6856;51.460;7.158;2023-07-13T15:00:13;25.00;52.10
13569;DHT22;6856;51.460;7.158;2023-07-13T15:02:51;25.10;52.40
13569;DHT22;6856;51.460;7.158;2023-07-13T15:05:28;25.10;52.70
13569;DHT22;6856;51.460;7.158;2023-07-13T15:08:04;25.10;52.60
13569;DHT22;6856;51.460;7.158;2023-07-13T15:10:38;25.10;52.50
13569;DHT22;6856;51.460;7.158;2023-07-13T15:13:16;25.10;52.60
13569;DHT22;6856;51.460;7.158;2023-07-13T15:15:51;25.10;52.70
13569;DHT22;6856;51.460;7.158;2023-07-13T15:18:28;25.20;52.90
13569;DHT22;6856;51.460;7.158;2023-07-13T15:21:02;25.20;53.00
13569;DHT22;6856;51.460;7.158;2023-07-13T15:23:36;25.30;52.80
13569;DHT22;6856;51.460;7.158;2023-07-13T15:26:13;25.30;52.50
13569;DHT22;6856;51.460;7.158;2023-07-13T15:28:47;25.30;52.40
13569;DHT22;6856;51.460;7.158;2023-07-13T15:31:23;25.30;52.40
13569;DHT22;6856;51.460;7.158;2023-07-13T15:34:00;25.30;52.60
13569;DHT22;6856;51.460;7.158;2023-07-13T15:36:34;25.30;52.50
13569;DHT22;6856;51.460;7.158;2023-07-13T15:39:13;25.30;52.40
13569;DHT22;6856;51.460;7.158;2023-07-13T15:41:49;25.30;52.50
13569;DHT22;6856;51.460;7.158;2023-07-13T15:44:28;25.30;52.40
13569;DHT22;6856;51.460;7.158;2023-07-13T15:47:04;25.20;52.40
13569;DHT22;6856;51.460;7.158;2023-07-13T15:49:41;25.20;52.20
13569;DHT22;6856;51.460;7.158;2023-07-13T15:52:20;25.20;52.10
13569;DHT22;6856;51.460;7.158;2023-07-13T15:54:58;25.10;52.30
13569;DHT22;6856;51.460;7.158;2023-07-13T15:57:34;25.10;52.50
13569;DHT22;6856;51.460;7.158;2023-07-13T16:00:22;25.00;52.00
13569;DHT22;6856;51.460;7.158;2023-07-13T16:02:57;24.90;51.50
13569;DHT22;6856;51.460;7.158;2023-07-13T16:05:32;24.70;51.40
13569;DHT22;6856;51.460;7.158;2023-07-13T16:08:09;24.60;51.70
13569;DHT22;6856;51.460;7.158;2023-07-13T16:10:53;24.50;51.80
13569;DHT22;6856;51.460;7.158;2023-07-13T16:13:29;24.40;52.00
13569;DHT22;6856;51.460;7.158;2023-07-13T16:16:08;24.30;52.30
13569;DHT22;6856;51.460;7.158;2023-07-13T16:18:44;24.20;52.60
13569;DHT22;6856;51.460;7.158;2023-07-13T16:21:19;24.20;53.20
13569;DHT22;6856;51.460;7.158;2023-07-13T16:23:54;24.20;53.30
13569;DHT22;6856;51.460;7.158;2023-07-13T16:26:38;24.10;53.00
13569;DHT22;6856;51.460;7.158;2023-07-13T16:29:16;24.10;53.10
13569;DHT22;6856;51.460;7.158;2023-07-13T16:31:58;24.10;53.20
13569;DHT22;6856;51.460;7.158;2023-07-13T16:34:36;24.10;53.40
13569;DHT22;6856;51.460;7.158;2023-07-13T16:37:17;24.10;53.40
13569;DHT22;6856;51.460;7.158;2023-07-13T16:39:56;24.10;53.50
13569;DHT22;6856;51.460;7.158;2023-07-13T16:42:32;24.10;53.40
13569;DHT22;6856;51.460;7.158;2023-07-13T16:45:11;24.20;53.50
13569;DHT22;6856;51.460;7.158;2023-07-13T16:47:46;24.20;54.20
13569;DHT22;6856;51.460;7.158;2023-07-13T16:50:25;24.20;53.70
13569;DHT22;6856;51.460;7.158;2023-07-13T16:53:01;24.20;53.70